sensor_id;sensor_type;location;lat;lon;timestamp;temperature;humidity
8914;DHT22;4492;48.736;9.092;2022-10-31T00:02:05;10.00;99.90
8914;DHT22;4492;48.736;9.092;2022-10-31T00:04:31;10.00;99.90
8914;DHT22;4492;48.736;9.092;2022-10-31T00:06:57;10.10;99.90
8914;DHT22;4492;48.736;9.092;2022-10-31T00:09:22;10.00;99.90
8914;DHT22;4492;48.736;9.092;2022-10-31T00:11:48;10.00;99.90
8914;DHT22;4492;48.736;9.092;2022-10-31T00:14:13;9.90;99.90
8914;DHT22;4492;48.736;9.092;2022-10-31T00:16:39;10.00;99.90
8914;DHT22;4492;48.736;9.092;2022-10-31T00:19:06;9.90;99.90
8914;DHT22;4492;48.736;9.092;2022-10-31T00:21:32;10.00;99.90
8914;DHT22;4492;48.736;9.092;2022-10-31T00:23:59;10.00;99.90
8914;DHT22;4492;48.736;9.092;2022-10-31T00:26:27;9.90;99.90
8914;DHT22;4492;48.736;9.092;2022-10-31T00:28:53;10.00;99.90
8914;DHT22;4492;48.736;9.092;2022-10-31T00:31:19;10.00;99.90
8914;DHT22;4492;48.736;9.092;2022-10-31T00:33:45;9.90;99.90
8914;DHT22;4492;48.736;9.092;2022-10-31T00:36:16;9.90;99.90
8914;DHT22;4492;48.736;9.092;2022-10-31T00:38:42;9.80;99.90
8914;DHT22;4492;48.736;9.092;2022-10-31T00:41:09;9.80;99.90
8914;DHT22;4492;48.736;9.092;2022-10-31T00:43:35;9.80;99.90
8914;DHT22;4492;48.736;9.092;2022-10-31T00:46:01;9.70;99.90
8914;DHT22;4492;48.736;9.092;2022-10-31T00:48:26;9.70;99.90
8914;DHT22;4492;48.736;9.092;2022-10-31T00:50:52;9.70;99.90
8914;DHT22;4492;48.736;9.092;2022-10-31T00:53:17;9.70;99.90
8914;DHT22;4492;48.736;9.092;2022-10-31T00:55:43;9.80;99.90
8914;DHT22;4492;48.736;9.092;2022-10-31T00:58:09;9.70;99.90
8914;DHT22;4492;48.736;9.092;2022-10-31T01:00:34;9.80;99.90
8914;DHT22;4492;48.736;9.092;2022-10-31T01:03:00;9.80;99.90
8914;DHT22;4492;48.736;9.092;2022-10-31T01:05:25;9.80;99.90
8914;DHT22;4492;48.736;9.092;2022-10-31T01:07:51;9.90;99.90
8914;DHT22;4492;48.736;9.092;2022-10-31T01:10:17;9.90;99.90
8914;DHT22;4492;48.736;9.092;2022-10-31T01:12:45;10.00;99.90
8914;DHT22;4492;48.736;9.092;2022-10-31T01:15:13;10.00;99.90
8914;DHT22;4492;48.736;9.092;2022-10-31T01:17:39;10.00;99.90
8914;DHT22;4492;48.736;9.092;2022-10-31T01:20:06;10.00;99.90
8914;DHT22;4492;48.736;9.092;2022-10-31T01:22:32;10.00;99.90
8914;DHT22;4492;48.736;9.092;2022-10-31T01:24:58;10.00;99.90
8914;DHT22;4492;48.736;9.092;2022-10-31T01:27:23;10.00;99.90
8914;DHT22;4492;48.736;9.092;2022-10-31T01:29:49;9.90;99.90
8914;DHT22;4492;48.736;9.092;2022-10-31T01:32:14;9.90;99.90
8914;DHT22;4492;48.736;9.092;2022-10-31T01:34:40;9.90;99.90
8914;DHT22;4492;48.736;9.092;2022-10-31T01:37:06;9.90;99.90
8914;DHT22;4492;48.736;9.092;2022-10-31T01:39:31;9.90;99.90
8914;DHT22;4492;48.736;9.092;2022-10-31T01:41:57;9.90;99.90
8914;DHT22;4492;48.736;9.092;2022-10-31T01:46:52;10.00;99.90
8914;DHT22;4492;48.736;9.092;2022-10-31T01:49:32;10.00;99.90
8914;DHT22;4492;48.736;9.092;2022-10-31T01:52:05;10.00;99.90
8914;DHT22;4492;48.736;9.092;2022-10-31T01:54:35;10.10;99.90
8914;DHT22;4492;48.736;9.092;2022-10-31T01:57:03;10.10;99.90
8914;DHT22;4492;48.736;9.092;2022-10-31T01:59:32;10.10;99.90
8914;DHT22;4492;48.736;9.092;2022-10-31T02:01:59;10.10;99.90
8914;DHT22;4492;48.736;9.092;2022-10-31T02:04:25;10.10;99.90
8914;DHT22;4492;48.736;9.092;2022-10-31T02:06:56;10.00;99.90
8914;DHT22;4492;48.736;9.092;2022-10-31T02:09:23;10.10;99.90
8914;DHT22;4492;48.736;9.092;2022-10-31T02:11:56;10.00;99.90
8914;DHT22;4492;48.736;9.092;2022-10-31T02:14:24;10.00;99.90
8914;DHT22;4492;48.736;9.092;2022-10-31T02:16:50;10.00;99.90
8914;DHT22;4492;48.736;9.092;2022-10-31T02:19:21;9.90;99.90
8914;DHT22;4492;48.736;9.092;2022-10-31T02:22:05;9.80;99.90
8914;DHT22;4492;48.736;9.092;2022-10-31T02:24:48;9.70;99.90
8914;DHT22;4492;48.736;9.092;2022-10-31T02:30:14;9.70;99.90
8914;DHT22;4492;48.736;9.092;2022-10-31T02:38:02;9.40;99.90
8914;DHT22;4492;48.736;9.092;2022-10-31T02:40:35;9.40;99.90
8914;DHT22;4492;48.736;9.092;2022-10-31T02:43:15;9.30;99.90
8914;DHT22;4492;48.736;9.092;2022-10-31T02:48:15;9.20;99.90
8914;DHT22;4492;48.736;9.092;2022-10-31T02:50:48;9.20;99.90
8914;DHT22;4492;48.736;9.092;2022-10-31T02:53:16;9.20;99.90
8914;DHT22;4492;48.736;9.092;2022-10-31T02:55:55;9.10;99.90
8914;DHT22;4492;48.736;9.092;2022-10-31T02:58:25;9.10;99.90
8914;DHT22;4492;48.736;9.092;2022-10-31T03:03:36;8.90;99.90
8914;DHT22;4492;48.736;9.092;2022-10-31T03:06:30;8.90;99.90
8914;DHT22;4492;48.736;9.092;2022-10-31T03:09:08;8.80;99.90
8914;DHT22;4492;48.736;9.092;2022-10-31T03:11:45;8.80;99.90
8914;DHT22;4492;48.736;9.092;2022-10-31T03:17:05;8.70;99.90
8914;DHT22;4492;48.736;9.092;2022-10-31T03:19:41;8.80;99.90
8914;DHT22;4492;48.736;9.092;2022-10-31T03:22:14;8.70;99.90
8914;DHT22;4492;48.736;9.092;2022-10-31T03:24:42;8.70;99.90
8914;DHT22;4492;48.736;9.092;2022-10-31T03:27:11;8.80;99.90
8914;DHT22;4492;48.736;9.092;2022-10-31T03:29:40;8.80;99.90
8914;DHT22;4492;48.736;9.092;2022-10-31T03:32:12;8.80;99.90
8914;DHT22;4492;48.736;9.092;2022-10-31T03:34:41;8.80;99.90
8914;DHT22;4492;48.736;9.092;2022-10-31T03:37:10;8.70;99.90
8914;DHT22;4492;48.736;9.092;2022-10-31T03:39:39;8.70;99.90
8914;DHT22;4492;48.736;9.092;2022-10-31T03:42:09;8.60;99.90
8914;DHT22;4492;48.736;9.092;2022-10-31T03:44:35;8.60;99.90
8914;DHT22;4492;48.736;9.092;2022-10-31T03:47:04;8.60;99.90
8914;DHT22;4492;48.736;9.092;2022-10-31T03:49:30;8.50;99.90
8914;DHT22;4492;48.736;9.092;2022-10-31T03:54:47;8.50;99.90
8914;DHT22;4492;48.736;9.092;2022-10-31T03:57:16;8.50;99.90
8914;DHT22;4492;48.736;9.092;2022-10-31T03:59:47;8.40;99.90
8914;DHT22;4492;48.736;9.092;2022-10-31T04:02:17;8.40;99.90
8914;DHT22;4492;48.736;9.092;2022-10-31T04:04:44;8.30;99.90
8914;DHT22;4492;48.736;9.092;2022-10-31T04:07:12;8.30;99.90
8914;DHT22;4492;48.736;9.092;2022-10-31T04:09:42;8.40;99.90
8914;DHT22;4492;48.736;9.092;2022-10-31T04:12:12;8.40;99.90
8914;DHT22;4492;48.736;9.092;2022-10-31T04:14:41;8.40;99.90
8914;DHT22;4492;48.736;9.092;2022-10-31T04:17:11;8.30;99.90
8914;DHT22;4492;48.736;9.092;2022-10-31T04:19:37;8.30;99.90
8914;DHT22;4492;48.736;9.092;2022-10-31T04:22:03;8.30;99.90
8914;DHT22;4492;48.736;9.092;2022-10-31T04:24:29;8.20;99.90
8914;DHT22;4492;48.736;9.092;2022-10-31T04:26:54;8.20;99.90
8914;DHT22;4492;48.736;9.092;2022-10-31T04:29:20;8.20;99.90
8914;DHT22;4492;48.736;9.092;2022-10-31T04:31:45;8.20;99.90
8914;DHT22;4492;48.736;9.092;2022-10-31T04:34:11;8.20;99.90
8914;DHT22;4492;48.736;9.092;2022-10-31T04:36:36;8.20;99.90
8914;DHT22;4492;48.736;9.092;2022-10-31T04:39:02;8.20;99.90
8914;DHT22;4492;48.736;9.092;2022-10-31T04:41:27;8.20;99.90
8914;DHT22;4492;48.736;9.092;2022-10-31T04:43:53;8.20;99.90
8914;DHT22;4492;48.736;9.092;2022-10-31T04:46:18;8.10;99.90
8914;DHT22;4492;48.736;9.092;2022-10-31T04:48:44;8.10;99.90
8914;DHT22;4492;48.736;9.092;2022-10-31T04:51:10;8.10;99.90
8914;DHT22;4492;48.736;9.092;2022-10-31T04:53:35;8.00;99.90
8914;DHT22;4492;48.736;9.092;2022-10-31T04:56:01;8.00;99.90
8914;DHT22;4492;48.736;9.092;2022-10-31T04:58:27;8.00;99.90
8914;DHT22;4492;48.736;9.092;2022-10-31T05:00:53;8.00;99.90
8914;DHT22;4492;48.736;9.092;2022-10-31T05:03:19;8.00;99.90
8914;DHT22;4492;48.736;9.092;2022-10-31T05:05:45;7.90;99.90
8914;DHT22;4492;48.736;9.092;2022-10-31T05:08:10;7.90;99.90
8914;DHT22;4492;48.736;9.092;2022-10-31T05:10:36;7.90;99.90
8914;DHT22;4492;48.736;9.092;2022-10-31T05:13:03;7.80;99.90
8914;DHT22;4492;48.736;9.092;2022-10-31T05:15:29;7.90;99.90
8914;DHT22;4492;48.736;9.092;2022-10-31T05:17:55;7.90;99.90
8914;DHT22;4492;48.736;9.092;2022-10-31T05:20:22;7.90;99.90
8914;DHT22;4492;48.736;9.092;2022-10-31T05:22:50;7.90;99.90
8914;DHT22;4492;48.736;9.092;2022-10-31T05:25:17;8.00;99.90
8914;DHT22;4492;48.736;9.092;2022-10-31T05:27:45;8.00;99.90
8914;DHT22;4492;48.736;9.092;2022-10-31T05:30:12;7.90;99.90
8914;DHT22;4492;48.736;9.092;2022-10-31T05:32:43;7.90;99.90
8914;DHT22;4492;48.736;9.092;2022-10-31T05:35:10;7.90;99.90
8914;DHT22;4492;48.736;9.092;2022-10-31T05:37:36;7.90;99.90
8914;DHT22;4492;48.736;9.092;2022-10-31T05:40:03;7.80;99.90
8914;DHT22;4492;48.736;9.092;2022-10-31T05:42:29;7.80;99.90
8914;DHT22;4492;48.736;9.092;2022-10-31T05:44:54;7.80;99.90
8914;DHT22;4492;48.736;9.092;2022-10-31T05:47:20;7.70;99.90
8914;DHT22;4492;48.736;9.092;2022-10-31T05:49:45;7.70;99.90
8914;DHT22;4492;48.736;9.092;2022-10-31T05:52:11;7.70;99.90
8914;DHT22;4492;48.736;9.092;2022-10-31T05:54:37;7.70;99.90
8914;DHT22;4492;48.736;9.092;2022-10-31T05:57:02;7.70;99.90
8914;DHT22;4492;48.736;9.092;2022-10-31T05:59:28;7.70;99.90
8914;DHT22;4492;48.736;9.092;2022-10-31T06:01:53;7.70;99.90
8914;DHT22;4492;48.736;9.092;2022-10-31T06:04:19;7.70;99.90
8914;DHT22;4492;48.736;9.092;2022-10-31T06:06:44;7.70;99.90
8914;DHT22;4492;48.736;9.092;2022-10-31T06:09:10;7.70;99.90
8914;DHT22;4492;48.736;9.092;2022-10-31T06:11:35;7.70;99.90
8914;DHT22;4492;48.736;9.092;2022-10-31T06:14:01;7.70;99.90
8914;DHT22;4492;48.736;9.092;2022-10-31T06:16:27;7.70;99.90
8914;DHT22;4492;48.736;9.092;2022-10-31T06:18:52;7.70;99.90
8914;DHT22;4492;48.736;9.092;2022-10-31T06:21:18;7.70;99.90
8914;DHT22;4492;48.736;9.092;2022-10-31T06:23:43;7.70;99.90
8914;DHT22;4492;48.736;9.092;2022-10-31T06:26:09;7.70;99.90
8914;DHT22;4492;48.736;9.092;2022-10-31T06:28:34;7.70;99.90
8914;DHT22;4492;48.736;9.092;2022-10-31T06:31:00;7.70;99.90
8914;DHT22;4492;48.736;9.092;2022-10-31T06:33:26;7.70;99.90
8914;DHT22;4492;48.736;9.092;2022-10-31T06:35:51;7.70;99.90
8914;DHT22;4492;48.736;9.092;2022-10-31T06:38:16;7.80;99.90
8914;DHT22;4492;48.736;9.092;2022-10-31T06:40:42;7.90;99.90
8914;DHT22;4492;48.736;9.092;2022-10-31T06:43:08;7.90;99.90
8914;DHT22;4492;48.736;9.092;2022-10-31T06:45:34;8.00;99.90
8914;DHT22;4492;48.736;9.092;2022-10-31T06:47:59;8.10;99.90
8914;DHT22;4492;48.736;9.092;2022-10-31T06:50:25;8.10;99.90
8914;DHT22;4492;48.736;9.092;2022-10-31T06:52:58;8.20;99.90
8914;DHT22;4492;48.736;9.092;2022-10-31T06:55:25;8.20;99.90
8914;DHT22;4492;48.736;9.092;2022-10-31T06:57:55;8.30;99.90
8914;DHT22;4492;48.736;9.092;2022-10-31T07:00:21;8.30;99.90
8914;DHT22;4492;48.736;9.092;2022-10-31T07:03:11;8.30;99.90
8914;DHT22;4492;48.736;9.092;2022-10-31T07:05:37;8.40;99.90
8914;DHT22;4492;48.736;9.092;2022-10-31T07:08:05;8.50;99.90
8914;DHT22;4492;48.736;9.092;2022-10-31T07:10:33;8.60;99.90
8914;DHT22;4492;48.736;9.092;2022-10-31T07:13:01;8.70;99.90
8914;DHT22;4492;48.736;9.092;2022-10-31T07:15:28;8.90;99.90
8914;DHT22;4492;48.736;9.092;2022-10-31T07:17:54;9.00;99.90
8914;DHT22;4492;48.736;9.092;2022-10-31T07:20:24;9.10;99.90
8914;DHT22;4492;48.736;9.092;2022-10-31T07:22:49;9.20;99.90
8914;DHT22;4492;48.736;9.092;2022-10-31T07:25:15;9.30;99.90
8914;DHT22;4492;48.736;9.092;2022-10-31T07:27:42;9.40;99.90
8914;DHT22;4492;48.736;9.092;2022-10-31T07:30:09;9.40;99.90
8914;DHT22;4492;48.736;9.092;2022-10-31T07:32:43;9.50;99.90
8914;DHT22;4492;48.736;9.092;2022-10-31T07:35:10;9.60;99.90
8914;DHT22;4492;48.736;9.092;2022-10-31T07:37:36;9.60;99.90
8914;DHT22;4492;48.736;9.092;2022-10-31T07:40:03;9.70;99.90
8914;DHT22;4492;48.736;9.092;2022-10-31T07:42:28;9.80;99.90
8914;DHT22;4492;48.736;9.092;2022-10-31T07:44:54;9.90;99.90
8914;DHT22;4492;48.736;9.092;2022-10-31T07:47:20;10.00;99.90
8914;DHT22;4492;48.736;9.092;2022-10-31T07:49:45;10.10;99.90
8914;DHT22;4492;48.736;9.092;2022-10-31T07:52:11;10.20;99.90
8914;DHT22;4492;48.736;9.092;2022-10-31T07:54:36;10.30;99.90
8914;DHT22;4492;48.736;9.092;2022-10-31T07:57:02;10.30;99.90
8914;DHT22;4492;48.736;9.092;2022-10-31T07:59:27;10.40;99.90
8914;DHT22;4492;48.736;9.092;2022-10-31T08:01:53;10.50;99.90
8914;DHT22;4492;48.736;9.092;2022-10-31T08:04:19;10.60;99.90
8914;DHT22;4492;48.736;9.092;2022-10-31T08:06:44;10.70;99.90
8914;DHT22;4492;48.736;9.092;2022-10-31T08:09:10;10.70;99.90
8914;DHT22;4492;48.736;9.092;2022-10-31T08:11:35;10.80;99.90
8914;DHT22;4492;48.736;9.092;2022-10-31T08:14:01;11.00;99.90
8914;DHT22;4492;48.736;9.092;2022-10-31T08:16:27;11.10;99.90
8914;DHT22;4492;48.736;9.092;2022-10-31T08:18:52;11.30;99.90
8914;DHT22;4492;48.736;9.092;2022-10-31T08:21:21;11.50;99.90
8914;DHT22;4492;48.736;9.092;2022-10-31T08:23:46;11.60;99.90
8914;DHT22;4492;48.736;9.092;2022-10-31T08:26:12;11.70;99.90
8914;DHT22;4492;48.736;9.092;2022-10-31T08:28:37;11.80;99.90
8914;DHT22;4492;48.736;9.092;2022-10-31T08:31:03;12.00;99.90
8914;DHT22;4492;48.736;9.092;2022-10-31T08:33:28;12.10;99.90
8914;DHT22;4492;48.736;9.092;2022-10-31T08:35:54;12.20;99.90
8914;DHT22;4492;48.736;9.092;2022-10-31T08:38:19;12.30;99.90
8914;DHT22;4492;48.736;9.092;2022-10-31T08:40:47;12.50;99.90
8914;DHT22;4492;48.736;9.092;2022-10-31T08:43:14;12.60;99.90
8914;DHT22;4492;48.736;9.092;2022-10-31T08:45:41;12.70;99.90
8914;DHT22;4492;48.736;9.092;2022-10-31T08:48:13;12.80;99.90
8914;DHT22;4492;48.736;9.092;2022-10-31T08:50:39;12.90;99.90
8914;DHT22;4492;48.736;9.092;2022-10-31T08:53:08;13.00;99.90
8914;DHT22;4492;48.736;9.092;2022-10-31T08:55:35;13.20;99.90
8914;DHT22;4492;48.736;9.092;2022-10-31T08:58:01;13.30;99.90
8914;DHT22;4492;48.736;9.092;2022-10-31T09:00:27;13.50;99.90
8914;DHT22;4492;48.736;9.092;2022-10-31T09:03:06;13.70;99.90
8914;DHT22;4492;48.736;9.092;2022-10-31T09:05:34;13.90;99.90
8914;DHT22;4492;48.736;9.092;2022-10-31T09:08:01;14.00;99.90
8914;DHT22;4492;48.736;9.092;2022-10-31T09:10:28;14.20;99.90
8914;DHT22;4492;48.736;9.092;2022-10-31T09:12:57;14.40;99.90
8914;DHT22;4492;48.736;9.092;2022-10-31T09:15:24;14.50;99.90
8914;DHT22;4492;48.736;9.092;2022-10-31T09:17:50;14.60;99.90
8914;DHT22;4492;48.736;9.092;2022-10-31T09:20:16;14.80;99.90
8914;DHT22;4492;48.736;9.092;2022-10-31T09:22:41;14.80;99.90
8914;DHT22;4492;48.736;9.092;2022-10-31T09:25:07;14.90;99.90
8914;DHT22;4492;48.736;9.092;2022-10-31T09:27:33;15.10;99.90
8914;DHT22;4492;48.736;9.092;2022-10-31T09:29:59;15.10;99.90
8914;DHT22;4492;48.736;9.092;2022-10-31T09:32:24;15.20;99.90
8914;DHT22;4492;48.736;9.092;2022-10-31T09:34:50;15.30;99.90
8914;DHT22;4492;48.736;9.092;2022-10-31T09:37:15;15.40;99.90
8914;DHT22;4492;48.736;9.092;2022-10-31T09:39:41;15.50;99.90
8914;DHT22;4492;48.736;9.092;2022-10-31T09:42:22;15.60;99.90
8914;DHT22;4492;48.736;9.092;2022-10-31T09:52:38;16.00;99.90
8914;DHT22;4492;48.736;9.092;2022-10-31T09:55:19;16.00;99.90
8914;DHT22;4492;48.736;9.092;2022-10-31T09:57:46;16.10;99.90
8914;DHT22;4492;48.736;9.092;2022-10-31T10:00:17;16.20;99.90
8914;DHT22;4492;48.736;9.092;2022-10-31T10:02:51;16.40;99.90
8914;DHT22;4492;48.736;9.092;2022-10-31T10:05:23;16.60;99.90
8914;DHT22;4492;48.736;9.092;2022-10-31T10:08:08;16.70;99.90
8914;DHT22;4492;48.736;9.092;2022-10-31T10:19:28;17.10;99.90
8914;DHT22;4492;48.736;9.092;2022-10-31T10:30:22;17.50;99.90
8914;DHT22;4492;48.736;9.092;2022-10-31T10:33:04;17.50;99.90
8914;DHT22;4492;48.736;9.092;2022-10-31T10:35:40;17.50;99.90
8914;DHT22;4492;48.736;9.092;2022-10-31T10:38:27;17.50;99.90
8914;DHT22;4492;48.736;9.092;2022-10-31T10:40:54;17.50;99.90
8914;DHT22;4492;48.736;9.092;2022-10-31T10:43:26;17.40;99.90
8914;DHT22;4492;48.736;9.092;2022-10-31T10:46:26;17.40;99.90
8914;DHT22;4492;48.736;9.092;2022-10-31T10:54:43;17.50;99.90
8914;DHT22;4492;48.736;9.092;2022-10-31T11:00:29;17.30;99.90
8914;DHT22;4492;48.736;9.092;2022-10-31T11:02:55;17.40;99.90
8914;DHT22;4492;48.736;9.092;2022-10-31T11:05:40;17.40;99.90
8914;DHT22;4492;48.736;9.092;2022-10-31T11:08:07;17.40;99.90
8914;DHT22;4492;48.736;9.092;2022-10-31T11:10:34;17.50;99.90
8914;DHT22;4492;48.736;9.092;2022-10-31T11:15:57;17.80;99.90
8914;DHT22;4492;48.736;9.092;2022-10-31T11:18:27;18.00;99.90
8914;DHT22;4492;48.736;9.092;2022-10-31T11:20:56;18.10;99.90
8914;DHT22;4492;48.736;9.092;2022-10-31T11:23:23;18.20;99.90
8914;DHT22;4492;48.736;9.092;2022-10-31T11:26:01;18.10;99.90
8914;DHT22;4492;48.736;9.092;2022-10-31T11:28:28;18.10;99.90
8914;DHT22;4492;48.736;9.092;2022-10-31T11:31:07;18.20;99.90
8914;DHT22;4492;48.736;9.092;2022-10-31T11:33:40;18.30;99.90
8914;DHT22;4492;48.736;9.092;2022-10-31T11:36:18;18.60;99.90
8914;DHT22;4492;48.736;9.092;2022-10-31T11:38:46;18.80;99.90
8914;DHT22;4492;48.736;9.092;2022-10-31T11:41:25;18.90;99.90
8914;DHT22;4492;48.736;9.092;2022-10-31T11:43:57;18.90;99.90
8914;DHT22;4492;48.736;9.092;2022-10-31T11:46:50;19.00;99.90
8914;DHT22;4492;48.736;9.092;2022-10-31T11:52:04;18.80;99.90
8914;DHT22;4492;48.736;9.092;2022-10-31T11:54:45;18.70;99.90
8914;DHT22;4492;48.736;9.092;2022-10-31T11:59:52;18.80;99.90
8914;DHT22;4492;48.736;9.092;2022-10-31T12:02:20;18.80;99.90
8914;DHT22;4492;48.736;9.092;2022-10-31T12:05:01;18.80;99.90
8914;DHT22;4492;48.736;9.092;2022-10-31T12:07:28;18.80;99.90
8914;DHT22;4492;48.736;9.092;2022-10-31T12:09:53;18.60;99.90
8914;DHT22;4492;48.736;9.092;2022-10-31T12:13:27;18.60;99.90
8914;DHT22;4492;48.736;9.092;2022-10-31T12:15:32;18.80;99.90
8914;DHT22;4492;48.736;9.092;2022-10-31T12:29:24;19.20;99.90
8914;DHT22;4492;48.736;9.092;2022-10-31T12:34:44;19.20;99.90
8914;DHT22;4492;48.736;9.092;2022-10-31T12:45:55;18.80;99.90
8914;DHT22;4492;48.736;9.092;2022-10-31T12:49:04;18.70;99.90
8914;DHT22;4492;48.736;9.092;2022-10-31T12:51:46;18.70;99.90
8914;DHT22;4492;48.736;9.092;2022-10-31T12:54:18;18.60;99.90
8914;DHT22;4492;48.736;9.092;2022-10-31T12:57:22;18.50;99.90
8914;DHT22;4492;48.736;9.092;2022-10-31T12:59:53;18.40;99.90
8914;DHT22;4492;48.736;9.092;2022-10-31T13:02:49;18.40;99.90
8914;DHT22;4492;48.736;9.092;2022-10-31T13:08:14;18.40;99.90
8914;DHT22;4492;48.736;9.092;2022-10-31T13:13:41;18.40;99.90
8914;DHT22;4492;48.736;9.092;2022-10-31T13:16:34;18.40;99.90
8914;DHT22;4492;48.736;9.092;2022-10-31T13:19:02;18.30;99.90
8914;DHT22;4492;48.736;9.092;2022-10-31T13:21:52;18.20;99.90
8914;DHT22;4492;48.736;9.092;2022-10-31T13:24:30;18.10;99.90
8914;DHT22;4492;48.736;9.092;2022-10-31T13:26:58;18.10;99.90
8914;DHT22;4492;48.736;9.092;2022-10-31T13:29:33;18.20;99.90
8914;DHT22;4492;48.736;9.092;2022-10-31T13:32:04;18.30;99.90
8914;DHT22;4492;48.736;9.092;2022-10-31T13:34:39;18.30;99.90
8914;DHT22;4492;48.736;9.092;2022-10-31T13:45:21;19.10;99.90
8914;DHT22;4492;48.736;9.092;2022-10-31T13:50:39;18.70;99.90
8914;DHT22;4492;48.736;9.092;2022-10-31T13:53:20;18.60;99.90
8914;DHT22;4492;48.736;9.092;2022-10-31T13:55:49;18.50;99.90
8914;DHT22;4492;48.736;9.092;2022-10-31T13:58:22;18.40;99.90
8914;DHT22;4492;48.736;9.092;2022-10-31T14:03:37;18.10;99.90
8914;DHT22;4492;48.736;9.092;2022-10-31T14:06:05;18.00;99.90
8914;DHT22;4492;48.736;9.092;2022-10-31T14:08:34;17.90;99.90
8914;DHT22;4492;48.736;9.092;2022-10-31T14:11:00;17.80;99.90
8914;DHT22;4492;48.736;9.092;2022-10-31T14:13:31;17.80;99.90
8914;DHT22;4492;48.736;9.092;2022-10-31T14:16:06;17.80;99.90
8914;DHT22;4492;48.736;9.092;2022-10-31T14:18:37;17.90;99.90
8914;DHT22;4492;48.736;9.092;2022-10-31T14:23:48;17.80;99.90
8914;DHT22;4492;48.736;9.092;2022-10-31T14:28:50;17.70;99.90
8914;DHT22;4492;48.736;9.092;2022-10-31T14:31:38;17.70;99.90
8914;DHT22;4492;48.736;9.092;2022-10-31T14:34:24;17.70;99.90
8914;DHT22;4492;48.736;9.092;2022-10-31T14:45:34;17.40;99.90
8914;DHT22;4492;48.736;9.092;2022-10-31T14:48:23;17.40;99.90
8914;DHT22;4492;48.736;9.092;2022-10-31T14:50:52;17.40;99.90
8914;DHT22;4492;48.736;9.092;2022-10-31T14:56:09;17.30;99.90
8914;DHT22;4492;48.736;9.092;2022-10-31T14:58:39;17.20;99.90
8914;DHT22;4492;48.736;9.092;2022-10-31T15:01:06;17.20;99.90
8914;DHT22;4492;48.736;9.092;2022-10-31T15:03:44;17.20;99.90
8914;DHT22;4492;48.736;9.092;2022-10-31T15:06:13;17.20;99.90
8914;DHT22;4492;48.736;9.092;2022-10-31T15:11:15;17.10;99.90
8914;DHT22;4492;48.736;9.092;2022-10-31T15:13:55;16.90;99.90
8914;DHT22;4492;48.736;9.092;2022-10-31T15:16:24;16.80;99.90
8914;DHT22;4492;48.736;9.092;2022-10-31T15:18:57;16.60;99.90
8914;DHT22;4492;48.736;9.092;2022-10-31T15:21:24;16.50;99.90
8914;DHT22;4492;48.736;9.092;2022-10-31T15:23:53;16.30;99.90
8914;DHT22;4492;48.736;9.092;2022-10-31T15:26:21;16.20;99.90
8914;DHT22;4492;48.736;9.092;2022-10-31T15:29:01;16.00;99.90
8914;DHT22;4492;48.736;9.092;2022-10-31T15:31:28;15.90;99.90
8914;DHT22;4492;48.736;9.092;2022-10-31T15:33:54;15.80;99.90
8914;DHT22;4492;48.736;9.092;2022-10-31T15:36:24;15.60;99.90
8914;DHT22;4492;48.736;9.092;2022-10-31T15:38:50;15.40;99.90
8914;DHT22;4492;48.736;9.092;2022-10-31T15:41:33;15.30;99.90
8914;DHT22;4492;48.736;9.092;2022-10-31T15:44:11;15.20;99.90
8914;DHT22;4492;48.736;9.092;2022-10-31T15:46:37;15.10;99.90
8914;DHT22;4492;48.736;9.092;2022-10-31T15:49:02;15.00;99.90
8914;DHT22;4492;48.736;9.092;2022-10-31T15:51:31;14.90;99.90
8914;DHT22;4492;48.736;9.092;2022-10-31T15:53:58;14.80;99.90
8914;DHT22;4492;48.736;9.092;2022-10-31T15:56:28;14.70;99.90
8914;DHT22;4492;48.736;9.092;2022-10-31T15:58:56;14.60;99.90
8914;DHT22;4492;48.736;9.092;2022-10-31T16:06:35;14.40;99.90
8914;DHT22;4492;48.736;9.092;2022-10-31T16:09:02;14.30;99.90
8914;DHT22;4492;48.736;9.092;2022-10-31T16:11:37;14.20;99.90
8914;DHT22;4492;48.736;9.092;2022-10-31T16:16:46;14.00;99.90
8914;DHT22;4492;48.736;9.092;2022-10-31T16:21:51;13.70;99.90
8914;DHT22;4492;48.736;9.092;2022-10-31T16:24:19;13.60;99.90
8914;DHT22;4492;48.736;9.092;2022-10-31T16:26:52;13.50;99.90
8914;DHT22;4492;48.736;9.092;2022-10-31T16:29:42;13.40;99.90
8914;DHT22;4492;48.736;9.092;2022-10-31T16:32:29;13.30;99.90
8914;DHT22;4492;48.736;9.092;2022-10-31T16:37:32;13.10;99.90
8914;DHT22;4492;48.736;9.092;2022-10-31T16:39:58;13.00;99.90
8914;DHT22;4492;48.736;9.092;2022-10-31T16:42:23;12.90;99.90
8914;DHT22;4492;48.736;9.092;2022-10-31T16:44:50;12.80;99.90
8914;DHT22;4492;48.736;9.092;2022-10-31T16:47:16;12.80;99.90
8914;DHT22;4492;48.736;9.092;2022-10-31T16:49:43;12.60;99.90
8914;DHT22;4492;48.736;9.092;2022-10-31T16:52:11;12.60;99.90
8914;DHT22;4492;48.736;9.092;2022-10-31T16:54:36;12.50;99.90
8914;DHT22;4492;48.736;9.092;2022-10-31T16:57:04;12.40;99.90
8914;DHT22;4492;48.736;9.092;2022-10-31T16:59:31;12.30;99.90
8914;DHT22;4492;48.736;9.092;2022-10-31T17:01:58;12.20;99.90
8914;DHT22;4492;48.736;9.092;2022-10-31T17:04:24;12.10;99.90
8914;DHT22;4492;48.736;9.092;2022-10-31T17:06:50;12.20;99.90
8914;DHT22;4492;48.736;9.092;2022-10-31T17:09:16;12.20;99.90
8914;DHT22;4492;48.736;9.092;2022-10-31T17:11:47;12.20;99.90
8914;DHT22;4492;48.736;9.092;2022-10-31T17:14:14;12.30;99.90
8914;DHT22;4492;48.736;9.092;2022-10-31T17:16:40;12.30;99.90
8914;DHT22;4492;48.736;9.092;2022-10-31T17:19:09;12.30;99.90
8914;DHT22;4492;48.736;9.092;2022-10-31T17:21:35;12.30;99.90
8914;DHT22;4492;48.736;9.092;2022-10-31T17:24:00;12.30;99.90
8914;DHT22;4492;48.736;9.092;2022-10-31T17:26:26;12.30;99.90
8914;DHT22;4492;48.736;9.092;2022-10-31T17:28:51;12.30;99.90
8914;DHT22;4492;48.736;9.092;2022-10-31T17:31:22;12.20;99.90
8914;DHT22;4492;48.736;9.092;2022-10-31T17:33:48;12.20;99.90
8914;DHT22;4492;48.736;9.092;2022-10-31T17:36:14;12.10;99.90
8914;DHT22;4492;48.736;9.092;2022-10-31T17:38:40;12.10;99.90
8914;DHT22;4492;48.736;9.092;2022-10-31T17:41:06;12.00;99.90
8914;DHT22;4492;48.736;9.092;2022-10-31T17:43:32;12.00;99.90
8914;DHT22;4492;48.736;9.092;2022-10-31T17:46:00;12.10;99.90
8914;DHT22;4492;48.736;9.092;2022-10-31T17:48:26;12.20;99.90
8914;DHT22;4492;48.736;9.092;2022-10-31T17:50:52;12.20;99.90
8914;DHT22;4492;48.736;9.092;2022-10-31T17:53:18;12.10;99.90
8914;DHT22;4492;48.736;9.092;2022-10-31T17:55:43;12.10;99.90
8914;DHT22;4492;48.736;9.092;2022-10-31T17:58:09;12.00;99.90
8914;DHT22;4492;48.736;9.092;2022-10-31T18:00:37;11.90;99.90
8914;DHT22;4492;48.736;9.092;2022-10-31T18:03:03;11.80;99.90
8914;DHT22;4492;48.736;9.092;2022-10-31T18:05:29;11.60;99.90
8914;DHT22;4492;48.736;9.092;2022-10-31T18:07:55;11.60;99.90
8914;DHT22;4492;48.736;9.092;2022-10-31T18:10:20;11.50;99.90
8914;DHT22;4492;48.736;9.092;2022-10-31T18:12:46;11.40;99.90
8914;DHT22;4492;48.736;9.092;2022-10-31T18:15:13;11.30;99.90
8914;DHT22;4492;48.736;9.092;2022-10-31T18:17:39;11.40;99.90
8914;DHT22;4492;48.736;9.092;2022-10-31T18:20:05;11.40;99.90
8914;DHT22;4492;48.736;9.092;2022-10-31T18:22:30;11.40;99.90
8914;DHT22;4492;48.736;9.092;2022-10-31T18:24:56;11.30;99.90
8914;DHT22;4492;48.736;9.092;2022-10-31T18:27:22;11.20;99.90
8914;DHT22;4492;48.736;9.092;2022-10-31T18:29:47;11.20;99.90
8914;DHT22;4492;48.736;9.092;2022-10-31T18:32:13;11.10;99.90
8914;DHT22;4492;48.736;9.092;2022-10-31T18:34:38;11.10;99.90
8914;DHT22;4492;48.736;9.092;2022-10-31T18:37:04;11.10;99.90
8914;DHT22;4492;48.736;9.092;2022-10-31T18:39:29;11.10;99.90